SAS1649 ESSA-LOWW
Flight info
| Callsign | SAS1649 |
|---|---|
| Flight time | 1h 55m |
| Altitude | 43000 |
| Route | BABAP T316 NEPVA DCT GOTAL DCT PENOR/N0479F410 DCT BEZMI DCT ATMIR DCT DESEN/N0482F430 DCT MIKOV MIKOV8W |
| Aircraft | A359/H-SDE2E3GHIJ3J4J5LM1ORWXY/LB1D1 |
Departure
| Time | 2026-04-24 13:44 |
|---|---|
| Airport | Stockholm-Arlanda Airport (ESSA) |
Arrival
| Time | 2026-04-24 15:40 |
|---|---|
| Airport | Vienna International Airport (LOWW) |
| Time | Latitude | Longitude | Altitude | Speed | Heading |
|---|---|---|---|---|---|
| 2026-04-24 13:02 | 59.65358 | 17.93538 | 115 ft | 0 kts | 76° |
| 2026-04-24 13:09 | 59.65354 | 17.93510 | 119 ft | 0 kts | 76° |
| 2026-04-24 13:09 | 59.65358 | 17.93538 | 119 ft | 0 kts | 76° |
| 2026-04-24 13:33 | 59.65352 | 17.93499 | 116 ft | 4 kts | 66° |
| 2026-04-24 13:33 | 59.65339 | 17.93454 | 113 ft | 4 kts | 46° |
| 2026-04-24 13:33 | 59.65318 | 17.93424 | 113 ft | 4 kts | 13° |
| 2026-04-24 13:33 | 59.65298 | 17.93423 | 114 ft | 0 kts | 346° |
| 2026-04-24 13:34 | 59.65297 | 17.93423 | 114 ft | 4 kts | 346° |
| 2026-04-24 13:37 | 59.65298 | 17.93423 | 114 ft | 0 kts | 346° |
| 2026-04-24 13:38 | 59.65313 | 17.93415 | 113 ft | 8 kts | 346° |
| 2026-04-24 13:38 | 59.65380 | 17.93382 | 114 ft | 12 kts | 346° |
| 2026-04-24 13:38 | 59.65470 | 17.93345 | 116 ft | 14 kts | 0° |
| 2026-04-24 13:38 | 59.65550 | 17.93445 | 117 ft | 15 kts | 71° |
| 2026-04-24 13:39 | 59.65579 | 17.93668 | 116 ft | 18 kts | 75° |
| 2026-04-24 13:39 | 59.65612 | 17.93927 | 120 ft | 20 kts | 76° |
| 2026-04-24 13:39 | 59.65644 | 17.94183 | 126 ft | 19 kts | 76° |
| 2026-04-24 13:39 | 59.65679 | 17.94453 | 122 ft | 22 kts | 76° |
| 2026-04-24 13:40 | 59.65713 | 17.94723 | 126 ft | 12 kts | 76° |
| 2026-04-24 13:40 | 59.65737 | 17.94918 | 127 ft | 16 kts | 76° |
| 2026-04-24 13:40 | 59.65742 | 17.95068 | 129 ft | 16 kts | 106° |
| 2026-04-24 13:40 | 59.65665 | 17.95186 | 136 ft | 16 kts | 160° |
| 2026-04-24 13:41 | 59.65546 | 17.95251 | 135 ft | 20 kts | 166° |
| 2026-04-24 13:41 | 59.65402 | 17.95327 | 135 ft | 23 kts | 165° |
| 2026-04-24 13:41 | 59.65229 | 17.95417 | 126 ft | 29 kts | 165° |
| 2026-04-24 13:41 | 59.65099 | 17.95487 | 119 ft | 13 kts | 165° |
| 2026-04-24 13:42 | 59.64989 | 17.95545 | 115 ft | 20 kts | 153° |
| 2026-04-24 13:42 | 59.64967 | 17.95579 | 116 ft | 3 kts | 135° |
| 2026-04-24 13:42 | 59.64948 | 17.95649 | 116 ft | 8 kts | 107° |
| 2026-04-24 13:42 | 59.64922 | 17.95795 | 111 ft | 14 kts | 121° |
| 2026-04-24 13:43 | 59.64831 | 17.95874 | 110 ft | 14 kts | 186° |
| 2026-04-24 13:43 | 59.64824 | 17.95872 | 110 ft | 0 kts | 189° |
| 2026-04-24 13:44 | 59.64677 | 17.95819 | 110 ft | 62 kts | 190° |
| 2026-04-24 13:44 | 59.63979 | 17.95569 | 116 ft | 139 kts | 191° |
| 2026-04-24 13:44 | 59.62854 | 17.95233 | 448 ft | 175 kts | 190° |
| 2026-04-24 13:44 | 59.61641 | 17.94930 | 1384 ft | 177 kts | 190° |
| 2026-04-24 13:45 | 59.60365 | 17.94707 | 1848 ft | 197 kts | 174° |
| 2026-04-24 13:45 | 59.59157 | 17.96116 | 2288 ft | 212 kts | 126° |
| 2026-04-24 13:45 | 59.58763 | 17.98862 | 2928 ft | 213 kts | 82° |
| 2026-04-24 13:45 | 59.59396 | 18.01405 | 3648 ft | 208 kts | 44° |
| 2026-04-24 13:46 | 59.60393 | 18.03492 | 4382 ft | 212 kts | 47° |
| 2026-04-24 13:46 | 59.61195 | 18.05971 | 5098 ft | 217 kts | 61° |
| 2026-04-24 13:46 | 59.61729 | 18.08731 | 5866 ft | 219 kts | 69° |
| 2026-04-24 13:46 | 59.62096 | 18.11713 | 6590 ft | 222 kts | 74° |
| 2026-04-24 13:47 | 59.62387 | 18.14707 | 7209 ft | 226 kts | 72° |
| 2026-04-24 13:47 | 59.62907 | 18.17669 | 7715 ft | 234 kts | 63° |
| 2026-04-24 13:47 | 59.63395 | 18.20889 | 8034 ft | 260 kts | 78° |
| 2026-04-24 13:47 | 59.63162 | 18.24610 | 8376 ft | 288 kts | 111° |
| 2026-04-24 13:48 | 59.62084 | 18.28027 | 9030 ft | 297 kts | 124° |
| 2026-04-24 13:48 | 59.60617 | 18.30942 | 9741 ft | 303 kts | 146° |
| 2026-04-24 13:48 | 59.58721 | 18.32854 | 10329 ft | 312 kts | 160° |
| 2026-04-24 13:48 | 59.56586 | 18.34154 | 10631 ft | 330 kts | 168° |
| 2026-04-24 13:49 | 59.54284 | 18.35060 | 10928 ft | 346 kts | 172° |
| 2026-04-24 13:49 | 59.51888 | 18.35794 | 11297 ft | 358 kts | 174° |
| 2026-04-24 13:49 | 59.49368 | 18.36526 | 11866 ft | 364 kts | 173° |
| 2026-04-24 13:49 | 59.46882 | 18.37289 | 12471 ft | 368 kts | 173° |
| 2026-04-24 13:50 | 59.44341 | 18.38124 | 13079 ft | 371 kts | 172° |
| 2026-04-24 13:50 | 59.41796 | 18.39007 | 13726 ft | 374 kts | 172° |
| 2026-04-24 13:50 | 59.39206 | 18.39938 | 14279 ft | 378 kts | 172° |
| 2026-04-24 13:50 | 59.36604 | 18.40888 | 14762 ft | 383 kts | 172° |
| 2026-04-24 13:51 | 59.33974 | 18.41854 | 15313 ft | 386 kts | 172° |
| 2026-04-24 13:51 | 59.31327 | 18.42826 | 15888 ft | 388 kts | 172° |
| 2026-04-24 13:51 | 59.28664 | 18.43800 | 16458 ft | 390 kts | 172° |
| 2026-04-24 13:51 | 59.25987 | 18.44775 | 17014 ft | 393 kts | 173° |
| 2026-04-24 13:52 | 59.23290 | 18.45752 | 17601 ft | 395 kts | 173° |
| 2026-04-24 13:52 | 59.20576 | 18.46732 | 18141 ft | 398 kts | 173° |
| 2026-04-24 13:52 | 59.18387 | 18.47520 | 18538 ft | 400 kts | 173° |
| 2026-04-24 13:52 | 59.15873 | 18.48423 | 18966 ft | 403 kts | 173° |
| 2026-04-24 13:53 | 59.13136 | 18.49405 | 19393 ft | 405 kts | 173° |
| 2026-04-24 13:53 | 59.10350 | 18.50403 | 19863 ft | 408 kts | 173° |
| 2026-04-24 13:53 | 59.07548 | 18.51407 | 20330 ft | 411 kts | 173° |
| 2026-04-24 13:53 | 59.04729 | 18.52371 | 20775 ft | 412 kts | 176° |
| 2026-04-24 13:54 | 59.01883 | 18.52585 | 21238 ft | 407 kts | 189° |
| 2026-04-24 13:54 | 58.99074 | 18.51913 | 21717 ft | 406 kts | 194° |
| 2026-04-24 13:54 | 58.96300 | 18.50905 | 22165 ft | 407 kts | 197° |
| 2026-04-24 13:54 | 58.93528 | 18.49708 | 22614 ft | 408 kts | 198° |
| 2026-04-24 13:55 | 58.90759 | 18.48429 | 23061 ft | 410 kts | 199° |
| 2026-04-24 13:55 | 58.87977 | 18.47126 | 23498 ft | 412 kts | 199° |
| 2026-04-24 13:55 | 58.85179 | 18.45829 | 23886 ft | 415 kts | 199° |
| 2026-04-24 13:55 | 58.82373 | 18.44556 | 24339 ft | 414 kts | 199° |
| 2026-04-24 13:56 | 58.79563 | 18.43301 | 24748 ft | 416 kts | 198° |
| 2026-04-24 13:56 | 58.76730 | 18.42048 | 25092 ft | 419 kts | 198° |
| 2026-04-24 13:56 | 58.73872 | 18.40791 | 25459 ft | 422 kts | 198° |
| 2026-04-24 13:56 | 58.70992 | 18.39530 | 25835 ft | 425 kts | 198° |
| 2026-04-24 13:57 | 58.68099 | 18.38267 | 26254 ft | 428 kts | 198° |
| 2026-04-24 13:57 | 58.65224 | 18.37013 | 26685 ft | 431 kts | 198° |
| 2026-04-24 13:57 | 58.62292 | 18.35737 | 27125 ft | 434 kts | 198° |
| 2026-04-24 13:57 | 58.59326 | 18.34446 | 27563 ft | 437 kts | 198° |
| 2026-04-24 13:58 | 58.56343 | 18.33151 | 28004 ft | 440 kts | 198° |
| 2026-04-24 13:58 | 58.53342 | 18.31852 | 28558 ft | 442 kts | 198° |
| 2026-04-24 13:58 | 58.50333 | 18.30550 | 29041 ft | 446 kts | 198° |
| 2026-04-24 13:58 | 58.47297 | 18.29237 | 29516 ft | 449 kts | 198° |
| 2026-04-24 13:59 | 58.44238 | 18.27915 | 29995 ft | 453 kts | 198° |
| 2026-04-24 13:59 | 58.41149 | 18.26584 | 30404 ft | 456 kts | 198° |
| 2026-04-24 13:59 | 58.38076 | 18.25263 | 30823 ft | 459 kts | 198° |
| 2026-04-24 13:59 | 58.34949 | 18.23923 | 31243 ft | 462 kts | 198° |
| 2026-04-24 14:00 | 58.31794 | 18.22572 | 31639 ft | 466 kts | 197° |
| 2026-04-24 14:00 | 58.28620 | 18.21217 | 32003 ft | 469 kts | 198° |
| 2026-04-24 14:00 | 58.25423 | 18.19854 | 32368 ft | 473 kts | 198° |
| 2026-04-24 14:00 | 58.22201 | 18.18482 | 32718 ft | 476 kts | 197° |
| 2026-04-24 14:01 | 58.18957 | 18.17102 | 33078 ft | 479 kts | 197° |
| 2026-04-24 14:01 | 58.15693 | 18.15718 | 33433 ft | 482 kts | 197° |
| 2026-04-24 14:01 | 58.12410 | 18.14328 | 33772 ft | 485 kts | 197° |
| 2026-04-24 14:01 | 58.09104 | 18.12931 | 34085 ft | 488 kts | 197° |
| 2026-04-24 14:02 | 58.05823 | 18.11547 | 34333 ft | 491 kts | 197° |
| 2026-04-24 14:02 | 58.02479 | 18.10139 | 34565 ft | 494 kts | 197° |
| 2026-04-24 14:02 | 57.99112 | 18.08725 | 34823 ft | 497 kts | 197° |
| 2026-04-24 14:02 | 57.95735 | 18.07310 | 35168 ft | 497 kts | 197° |
| 2026-04-24 14:03 | 57.92366 | 18.05901 | 35530 ft | 497 kts | 197° |
| 2026-04-24 14:03 | 57.88981 | 18.04489 | 35884 ft | 497 kts | 197° |
| 2026-04-24 14:03 | 57.85609 | 18.03084 | 36225 ft | 498 kts | 197° |
| 2026-04-24 14:03 | 57.82223 | 18.01674 | 36567 ft | 499 kts | 197° |
| 2026-04-24 14:04 | 57.78828 | 18.00264 | 36911 ft | 499 kts | 197° |
| 2026-04-24 14:04 | 57.75437 | 17.98858 | 37246 ft | 499 kts | 197° |
| 2026-04-24 14:04 | 57.72040 | 17.97455 | 37650 ft | 497 kts | 198° |
| 2026-04-24 14:04 | 57.68668 | 17.96065 | 38099 ft | 496 kts | 198° |
| 2026-04-24 14:05 | 57.65297 | 17.94676 | 38459 ft | 496 kts | 198° |
| 2026-04-24 14:05 | 57.61921 | 17.93286 | 38762 ft | 496 kts | 197° |
| 2026-04-24 14:05 | 57.58545 | 17.91898 | 39008 ft | 497 kts | 197° |
| 2026-04-24 14:05 | 57.55210 | 17.90529 | 39236 ft | 497 kts | 197° |
| 2026-04-24 14:06 | 57.51826 | 17.89144 | 39472 ft | 498 kts | 197° |
| 2026-04-24 14:06 | 57.48444 | 17.87763 | 39716 ft | 498 kts | 197° |
| 2026-04-24 14:06 | 57.45053 | 17.86381 | 39942 ft | 498 kts | 197° |
| 2026-04-24 14:06 | 57.41651 | 17.84997 | 40168 ft | 499 kts | 197° |
| 2026-04-24 14:07 | 57.38261 | 17.83621 | 40388 ft | 499 kts | 197° |
| 2026-04-24 14:07 | 57.34869 | 17.82246 | 40604 ft | 499 kts | 197° |
| 2026-04-24 14:07 | 57.31458 | 17.80867 | 40816 ft | 500 kts | 196° |
| 2026-04-24 14:07 | 57.28067 | 17.79498 | 41019 ft | 500 kts | 196° |
| 2026-04-24 14:08 | 57.24666 | 17.78128 | 41222 ft | 500 kts | 196° |
| 2026-04-24 14:08 | 57.21263 | 17.76759 | 41401 ft | 501 kts | 196° |
| 2026-04-24 14:08 | 57.17906 | 17.75412 | 41634 ft | 500 kts | 196° |
| 2026-04-24 14:08 | 57.14470 | 17.74036 | 41850 ft | 499 kts | 196° |
| 2026-04-24 14:09 | 57.11112 | 17.72693 | 41971 ft | 501 kts | 196° |
| 2026-04-24 14:09 | 57.07705 | 17.71332 | 41978 ft | 500 kts | 196° |
| 2026-04-24 14:09 | 57.00893 | 17.68621 | 41977 ft | 500 kts | 196° |
| 2026-04-24 14:10 | 56.94089 | 17.65923 | 41955 ft | 500 kts | 196° |
| 2026-04-24 14:10 | 56.87287 | 17.63236 | 41974 ft | 500 kts | 196° |
| 2026-04-24 14:11 | 56.80487 | 17.60559 | 41974 ft | 499 kts | 196° |
| 2026-04-24 14:12 | 56.70284 | 17.56561 | 41975 ft | 499 kts | 196° |
| 2026-04-24 14:12 | 56.63540 | 17.53931 | 41976 ft | 499 kts | 196° |
| 2026-04-24 14:13 | 56.56741 | 17.51290 | 41980 ft | 499 kts | 196° |
| 2026-04-24 14:13 | 56.49818 | 17.49798 | 41979 ft | 503 kts | 186° |
| 2026-04-24 14:14 | 56.43951 | 17.49404 | 41982 ft | 504 kts | 185° |
| 2026-04-24 14:14 | 56.33450 | 17.49025 | 41982 ft | 505 kts | 185° |
| 2026-04-24 14:15 | 56.26404 | 17.48743 | 41986 ft | 506 kts | 185° |
| 2026-04-24 14:15 | 56.19357 | 17.48433 | 41993 ft | 506 kts | 185° |
| 2026-04-24 14:16 | 56.12310 | 17.48114 | 41979 ft | 506 kts | 185° |
| 2026-04-24 14:17 | 56.01731 | 17.47639 | 41990 ft | 507 kts | 185° |
| 2026-04-24 14:17 | 55.91158 | 17.47169 | 41986 ft | 507 kts | 185° |
| 2026-04-24 14:18 | 55.84106 | 17.46857 | 41982 ft | 507 kts | 185° |
| 2026-04-24 14:18 | 55.77096 | 17.46548 | 41990 ft | 507 kts | 185° |
| 2026-04-24 14:19 | 55.70194 | 17.46245 | 41990 ft | 507 kts | 185° |
| 2026-04-24 14:19 | 55.63133 | 17.45936 | 41991 ft | 507 kts | 185° |
| 2026-04-24 14:20 | 55.56079 | 17.45629 | 41998 ft | 507 kts | 185° |
| 2026-04-24 14:20 | 55.49019 | 17.45322 | 41990 ft | 507 kts | 185° |
| 2026-04-24 14:21 | 55.41958 | 17.45016 | 41997 ft | 507 kts | 185° |
| 2026-04-24 14:21 | 55.34891 | 17.44711 | 41993 ft | 508 kts | 185° |
| 2026-04-24 14:22 | 55.27869 | 17.44409 | 41997 ft | 508 kts | 184° |
| 2026-04-24 14:23 | 55.17259 | 17.43956 | 41992 ft | 508 kts | 184° |
| 2026-04-24 14:23 | 55.10187 | 17.43654 | 41997 ft | 508 kts | 184° |
| 2026-04-24 14:24 | 55.03117 | 17.43354 | 41986 ft | 508 kts | 185° |
| 2026-04-24 14:24 | 54.96045 | 17.43055 | 42001 ft | 508 kts | 185° |
| 2026-04-24 14:25 | 54.88982 | 17.42758 | 42001 ft | 508 kts | 185° |
| 2026-04-24 14:25 | 54.81956 | 17.42462 | 42000 ft | 508 kts | 185° |
| 2026-04-24 14:26 | 54.74883 | 17.42166 | 42001 ft | 508 kts | 184° |
| 2026-04-24 14:26 | 54.67815 | 17.41871 | 42000 ft | 508 kts | 184° |
| 2026-04-24 14:27 | 54.60750 | 17.41578 | 41997 ft | 508 kts | 184° |
| 2026-04-24 14:27 | 54.53681 | 17.41285 | 41999 ft | 508 kts | 184° |
| 2026-04-24 14:28 | 54.46607 | 17.40993 | 41997 ft | 509 kts | 184° |
| 2026-04-24 14:28 | 54.39519 | 17.40701 | 41995 ft | 509 kts | 184° |
| 2026-04-24 14:29 | 54.32425 | 17.40666 | 41995 ft | 510 kts | 181° |
| 2026-04-24 14:29 | 54.25319 | 17.41032 | 41981 ft | 511 kts | 181° |
| 2026-04-24 14:30 | 54.19480 | 17.41335 | 41995 ft | 511 kts | 181° |
| 2026-04-24 14:30 | 54.11211 | 17.41681 | 41985 ft | 511 kts | 182° |
| 2026-04-24 14:31 | 54.04102 | 17.41939 | 41990 ft | 511 kts | 182° |
| 2026-04-24 14:31 | 53.96988 | 17.42191 | 41977 ft | 511 kts | 182° |
| 2026-04-24 14:32 | 53.89875 | 17.42445 | 41993 ft | 511 kts | 182° |
| 2026-04-24 14:32 | 53.82764 | 17.42700 | 41982 ft | 511 kts | 182° |
| 2026-04-24 14:33 | 53.75650 | 17.42955 | 41981 ft | 511 kts | 182° |
| 2026-04-24 14:33 | 53.68534 | 17.43208 | 41982 ft | 512 kts | 182° |
| 2026-04-24 14:34 | 53.61452 | 17.43459 | 41975 ft | 513 kts | 182° |
| 2026-04-24 14:34 | 53.54306 | 17.43712 | 41977 ft | 513 kts | 182° |
| 2026-04-24 14:35 | 53.47174 | 17.43965 | 41960 ft | 513 kts | 182° |
| 2026-04-24 14:35 | 53.40036 | 17.44216 | 41972 ft | 513 kts | 182° |
| 2026-04-24 14:36 | 53.32888 | 17.44466 | 41976 ft | 513 kts | 182° |
| 2026-04-24 14:36 | 53.25744 | 17.44716 | 41972 ft | 513 kts | 182° |
| 2026-04-24 14:37 | 53.18587 | 17.44965 | 41978 ft | 513 kts | 182° |
| 2026-04-24 14:37 | 53.11496 | 17.45211 | 41979 ft | 513 kts | 182° |
| 2026-04-24 14:38 | 53.04335 | 17.45458 | 41987 ft | 513 kts | 182° |
| 2026-04-24 14:38 | 52.97191 | 17.45705 | 41985 ft | 513 kts | 182° |
| 2026-04-24 14:39 | 52.90051 | 17.45949 | 41985 ft | 513 kts | 182° |
| 2026-04-24 14:39 | 52.82903 | 17.46194 | 41989 ft | 514 kts | 182° |
| 2026-04-24 14:40 | 52.75750 | 17.46431 | 41988 ft | 514 kts | 182° |
| 2026-04-24 14:40 | 52.68604 | 17.46592 | 41981 ft | 513 kts | 182° |
| 2026-04-24 14:41 | 52.61465 | 17.46733 | 41994 ft | 513 kts | 182° |
| 2026-04-24 14:41 | 52.54378 | 17.46882 | 41997 ft | 513 kts | 182° |
| 2026-04-24 14:42 | 52.48400 | 17.47013 | 42005 ft | 513 kts | 182° |
| 2026-04-24 14:42 | 52.40109 | 17.47197 | 42009 ft | 512 kts | 182° |
| 2026-04-24 14:43 | 52.32983 | 17.47355 | 42010 ft | 512 kts | 182° |
| 2026-04-24 14:43 | 52.25863 | 17.47512 | 42004 ft | 512 kts | 182° |
| 2026-04-24 14:44 | 52.18728 | 17.47669 | 42009 ft | 512 kts | 182° |
| 2026-04-24 14:44 | 52.11595 | 17.47825 | 42016 ft | 512 kts | 182° |
| 2026-04-24 14:45 | 52.04466 | 17.47980 | 42021 ft | 513 kts | 182° |
| 2026-04-24 14:45 | 51.97376 | 17.48134 | 42017 ft | 513 kts | 182° |
| 2026-04-24 14:46 | 51.90233 | 17.48288 | 42020 ft | 513 kts | 182° |
| 2026-04-24 14:46 | 51.83086 | 17.48443 | 42026 ft | 512 kts | 182° |
| 2026-04-24 14:47 | 51.77164 | 17.48571 | 42024 ft | 512 kts | 182° |
| 2026-04-24 14:47 | 51.68828 | 17.48750 | 42008 ft | 512 kts | 181° |
| 2026-04-24 14:48 | 51.61705 | 17.48902 | 42032 ft | 511 kts | 181° |
| 2026-04-24 14:48 | 51.54595 | 17.49054 | 42034 ft | 511 kts | 181° |
| 2026-04-24 14:49 | 51.47474 | 17.49205 | 42033 ft | 511 kts | 182° |
| 2026-04-24 14:49 | 51.40356 | 17.49355 | 42041 ft | 511 kts | 181° |
| 2026-04-24 14:50 | 51.33249 | 17.49505 | 42040 ft | 512 kts | 181° |
| 2026-04-24 14:50 | 51.26121 | 17.49655 | 42039 ft | 512 kts | 181° |
| 2026-04-24 14:51 | 51.18986 | 17.49805 | 42030 ft | 512 kts | 181° |
| 2026-04-24 14:51 | 51.11862 | 17.49953 | 42048 ft | 512 kts | 181° |
| 2026-04-24 14:52 | 51.04786 | 17.50101 | 42037 ft | 512 kts | 181° |
| 2026-04-24 14:52 | 50.97664 | 17.50250 | 42040 ft | 512 kts | 181° |
| 2026-04-24 14:53 | 50.90539 | 17.50302 | 41572 ft | 509 kts | 185° |
| 2026-04-24 14:53 | 50.87041 | 17.49623 | 40931 ft | 504 kts | 195° |
| 2026-04-24 14:53 | 50.83655 | 17.48335 | 40398 ft | 499 kts | 199° |
| 2026-04-24 14:53 | 50.80316 | 17.46903 | 39891 ft | 495 kts | 199° |
| 2026-04-24 14:54 | 50.77004 | 17.45457 | 39409 ft | 491 kts | 200° |
| 2026-04-24 14:54 | 50.73721 | 17.44022 | 38956 ft | 488 kts | 200° |
| 2026-04-24 14:54 | 50.70456 | 17.42595 | 38402 ft | 485 kts | 200° |
| 2026-04-24 14:54 | 50.67211 | 17.41178 | 37879 ft | 482 kts | 200° |
| 2026-04-24 14:55 | 50.65090 | 17.40253 | 37523 ft | 477 kts | 200° |
| 2026-04-24 14:55 | 50.60836 | 17.38402 | 36594 ft | 470 kts | 200° |
| 2026-04-24 14:55 | 50.57700 | 17.37039 | 35948 ft | 465 kts | 200° |
| 2026-04-24 14:55 | 50.54641 | 17.35711 | 35320 ft | 460 kts | 200° |
| 2026-04-24 14:56 | 50.51562 | 17.34376 | 34696 ft | 456 kts | 200° |
| 2026-04-24 14:56 | 50.48519 | 17.33058 | 34054 ft | 450 kts | 200° |
| 2026-04-24 14:56 | 50.45514 | 17.31759 | 33227 ft | 445 kts | 199° |
| 2026-04-24 14:56 | 50.42548 | 17.30478 | 32467 ft | 438 kts | 199° |
| 2026-04-24 14:57 | 50.39625 | 17.29218 | 31742 ft | 432 kts | 199° |
| 2026-04-24 14:57 | 50.36751 | 17.27981 | 31037 ft | 425 kts | 199° |
| 2026-04-24 14:57 | 50.33921 | 17.26763 | 30349 ft | 419 kts | 199° |
| 2026-04-24 14:57 | 50.31128 | 17.25561 | 29580 ft | 413 kts | 199° |
| 2026-04-24 14:58 | 50.28367 | 17.24377 | 28781 ft | 408 kts | 199° |
| 2026-04-24 14:58 | 50.25683 | 17.23225 | 27999 ft | 402 kts | 199° |
| 2026-04-24 14:58 | 50.23002 | 17.22077 | 27279 ft | 397 kts | 199° |
| 2026-04-24 14:58 | 50.20348 | 17.20943 | 26577 ft | 392 kts | 199° |
| 2026-04-24 14:59 | 50.17734 | 17.19826 | 25865 ft | 387 kts | 199° |
| 2026-04-24 14:59 | 50.15140 | 17.18718 | 25307 ft | 384 kts | 199° |
| 2026-04-24 14:59 | 50.12568 | 17.17623 | 24849 ft | 380 kts | 199° |
| 2026-04-24 14:59 | 50.10031 | 17.16542 | 24349 ft | 376 kts | 198° |
| 2026-04-24 15:00 | 50.07538 | 17.15482 | 23875 ft | 373 kts | 198° |
| 2026-04-24 15:00 | 50.05854 | 17.14767 | 23533 ft | 371 kts | 198° |
| 2026-04-24 15:00 | 50.03379 | 17.13716 | 22950 ft | 366 kts | 198° |
| 2026-04-24 15:00 | 50.00132 | 17.12338 | 22180 ft | 363 kts | 198° |
| 2026-04-24 15:01 | 49.97706 | 17.11310 | 21610 ft | 360 kts | 198° |
| 2026-04-24 15:01 | 49.96076 | 17.10620 | 21223 ft | 358 kts | 198° |
| 2026-04-24 15:01 | 49.93706 | 17.09616 | 20628 ft | 355 kts | 198° |
| 2026-04-24 15:01 | 49.91300 | 17.08599 | 20069 ft | 353 kts | 198° |
| 2026-04-24 15:02 | 49.88934 | 17.07602 | 19646 ft | 351 kts | 198° |
| 2026-04-24 15:02 | 49.86610 | 17.06624 | 19237 ft | 349 kts | 198° |
| 2026-04-24 15:02 | 49.84274 | 17.05641 | 18828 ft | 347 kts | 198° |
| 2026-04-24 15:02 | 49.81955 | 17.04667 | 18423 ft | 344 kts | 198° |
| 2026-04-24 15:03 | 49.79648 | 17.03697 | 17971 ft | 343 kts | 198° |
| 2026-04-24 15:03 | 49.77348 | 17.02732 | 17506 ft | 341 kts | 198° |
| 2026-04-24 15:03 | 49.75064 | 17.01774 | 17057 ft | 339 kts | 198° |
| 2026-04-24 15:03 | 49.72793 | 17.00823 | 16618 ft | 337 kts | 198° |
| 2026-04-24 15:04 | 49.70543 | 16.99881 | 16305 ft | 334 kts | 198° |
| 2026-04-24 15:04 | 49.68294 | 16.98940 | 16165 ft | 335 kts | 198° |
| 2026-04-24 15:04 | 49.66051 | 16.98002 | 16036 ft | 334 kts | 198° |
| 2026-04-24 15:04 | 49.63793 | 16.97059 | 15905 ft | 334 kts | 198° |
| 2026-04-24 15:05 | 49.61547 | 16.96123 | 15736 ft | 333 kts | 198° |
| 2026-04-24 15:05 | 49.59311 | 16.95191 | 15557 ft | 332 kts | 198° |
| 2026-04-24 15:05 | 49.57079 | 16.94263 | 15396 ft | 332 kts | 198° |
| 2026-04-24 15:05 | 49.54877 | 16.93348 | 15221 ft | 331 kts | 198° |
| 2026-04-24 15:06 | 49.52653 | 16.92425 | 15060 ft | 330 kts | 198° |
| 2026-04-24 15:06 | 49.50438 | 16.91506 | 14903 ft | 329 kts | 198° |
| 2026-04-24 15:06 | 49.48230 | 16.90589 | 14774 ft | 329 kts | 198° |
| 2026-04-24 15:06 | 49.46018 | 16.89672 | 14632 ft | 328 kts | 198° |
| 2026-04-24 15:07 | 49.43813 | 16.88760 | 14490 ft | 328 kts | 198° |
| 2026-04-24 15:07 | 49.41612 | 16.87851 | 14353 ft | 327 kts | 198° |
| 2026-04-24 15:07 | 49.39415 | 16.86945 | 14194 ft | 327 kts | 198° |
| 2026-04-24 15:07 | 49.37225 | 16.86041 | 14062 ft | 326 kts | 198° |
| 2026-04-24 15:08 | 49.35028 | 16.85134 | 13946 ft | 325 kts | 198° |
| 2026-04-24 15:08 | 49.32842 | 16.84233 | 13822 ft | 325 kts | 198° |
| 2026-04-24 15:08 | 49.30684 | 16.83345 | 13708 ft | 325 kts | 198° |
| 2026-04-24 15:08 | 49.28500 | 16.82449 | 13589 ft | 324 kts | 198° |
| 2026-04-24 15:09 | 49.26329 | 16.81557 | 13481 ft | 324 kts | 198° |
| 2026-04-24 15:09 | 49.24150 | 16.80663 | 13373 ft | 323 kts | 198° |
| 2026-04-24 15:09 | 49.21984 | 16.79775 | 13319 ft | 323 kts | 198° |
| 2026-04-24 15:09 | 49.19816 | 16.78887 | 13311 ft | 322 kts | 198° |
| 2026-04-24 15:10 | 49.17655 | 16.78002 | 13257 ft | 322 kts | 198° |
| 2026-04-24 15:10 | 49.15493 | 16.77117 | 13231 ft | 322 kts | 198° |
| 2026-04-24 15:10 | 49.13324 | 16.76231 | 13206 ft | 322 kts | 198° |
| 2026-04-24 15:10 | 49.11165 | 16.75350 | 13179 ft | 321 kts | 198° |
| 2026-04-24 15:11 | 49.09005 | 16.74469 | 13146 ft | 321 kts | 198° |
| 2026-04-24 15:11 | 49.06849 | 16.73591 | 13126 ft | 321 kts | 198° |
| 2026-04-24 15:11 | 49.04685 | 16.72710 | 13091 ft | 321 kts | 198° |
| 2026-04-24 15:11 | 49.02527 | 16.71832 | 13067 ft | 321 kts | 198° |
| 2026-04-24 15:12 | 49.00373 | 16.70957 | 13043 ft | 321 kts | 198° |
| 2026-04-24 15:12 | 48.96057 | 16.69207 | 12982 ft | 320 kts | 198° |
| 2026-04-24 15:12 | 48.93901 | 16.68354 | 12949 ft | 321 kts | 196° |
| 2026-04-24 15:13 | 48.91707 | 16.67705 | 12674 ft | 321 kts | 193° |
| 2026-04-24 15:13 | 48.89513 | 16.67113 | 12432 ft | 319 kts | 193° |
| 2026-04-24 15:13 | 48.87326 | 16.66542 | 12244 ft | 318 kts | 192° |
| 2026-04-24 15:13 | 48.85148 | 16.65984 | 12064 ft | 317 kts | 192° |
| 2026-04-24 15:14 | 48.82974 | 16.65432 | 11888 ft | 316 kts | 192° |
| 2026-04-24 15:14 | 48.80805 | 16.64885 | 11708 ft | 315 kts | 192° |
| 2026-04-24 15:14 | 48.78649 | 16.64344 | 11531 ft | 314 kts | 193° |
| 2026-04-24 15:14 | 48.76498 | 16.63803 | 11356 ft | 313 kts | 193° |
| 2026-04-24 15:15 | 48.74379 | 16.63272 | 11184 ft | 312 kts | 192° |
| 2026-04-24 15:15 | 48.72217 | 16.62732 | 11005 ft | 310 kts | 192° |
| 2026-04-24 15:15 | 48.70118 | 16.62209 | 10842 ft | 309 kts | 193° |
| 2026-04-24 15:15 | 48.67987 | 16.61677 | 10671 ft | 309 kts | 193° |
| 2026-04-24 15:16 | 48.65869 | 16.61149 | 10504 ft | 308 kts | 193° |
| 2026-04-24 15:16 | 48.63760 | 16.60624 | 10335 ft | 306 kts | 193° |
| 2026-04-24 15:16 | 48.61660 | 16.60103 | 10170 ft | 305 kts | 193° |
| 2026-04-24 15:16 | 48.59568 | 16.59583 | 9998 ft | 304 kts | 193° |
| 2026-04-24 15:17 | 48.57482 | 16.59066 | 9836 ft | 301 kts | 193° |
| 2026-04-24 15:17 | 48.55431 | 16.58559 | 9643 ft | 297 kts | 193° |
| 2026-04-24 15:17 | 48.53400 | 16.58054 | 9453 ft | 294 kts | 193° |
| 2026-04-24 15:17 | 48.51392 | 16.57557 | 9263 ft | 291 kts | 193° |
| 2026-04-24 15:18 | 48.49380 | 16.57057 | 9090 ft | 297 kts | 193° |
| 2026-04-24 15:18 | 48.47309 | 16.56633 | 8901 ft | 304 kts | 187° |
| 2026-04-24 15:18 | 48.45191 | 16.56811 | 8732 ft | 307 kts | 172° |
| 2026-04-24 15:18 | 48.43113 | 16.57574 | 8545 ft | 307 kts | 167° |
| 2026-04-24 15:19 | 48.41087 | 16.58447 | 8372 ft | 307 kts | 166° |
| 2026-04-24 15:19 | 48.39033 | 16.59336 | 8200 ft | 307 kts | 166° |
| 2026-04-24 15:19 | 48.36983 | 16.60217 | 8033 ft | 306 kts | 166° |
| 2026-04-24 15:19 | 48.34936 | 16.61089 | 7851 ft | 305 kts | 166° |
| 2026-04-24 15:20 | 48.32906 | 16.61950 | 7684 ft | 303 kts | 166° |
| 2026-04-24 15:20 | 48.30880 | 16.62805 | 7503 ft | 301 kts | 166° |
| 2026-04-24 15:20 | 48.28860 | 16.63656 | 7345 ft | 300 kts | 167° |
| 2026-04-24 15:20 | 48.26852 | 16.64502 | 7198 ft | 299 kts | 167° |
| 2026-04-24 15:21 | 48.24845 | 16.65350 | 7054 ft | 299 kts | 167° |
| 2026-04-24 15:21 | 48.22845 | 16.66187 | 6910 ft | 298 kts | 167° |
| 2026-04-24 15:21 | 48.20849 | 16.67022 | 6750 ft | 297 kts | 167° |
| 2026-04-24 15:21 | 48.18861 | 16.67854 | 6614 ft | 296 kts | 167° |
| 2026-04-24 15:22 | 48.16880 | 16.68683 | 6468 ft | 295 kts | 167° |
| 2026-04-24 15:22 | 48.14911 | 16.69505 | 6319 ft | 294 kts | 167° |
| 2026-04-24 15:22 | 48.12944 | 16.70325 | 6161 ft | 293 kts | 167° |
| 2026-04-24 15:23 | 48.09037 | 16.71963 | 5983 ft | 288 kts | 167° |
| 2026-04-24 15:23 | 48.05375 | 16.73487 | 5992 ft | 268 kts | 166° |
| 2026-04-24 15:23 | 48.03576 | 16.74231 | 5991 ft | 267 kts | 166° |
| 2026-04-24 15:24 | 47.98197 | 16.76456 | 5956 ft | 268 kts | 166° |
| 2026-04-24 15:25 | 47.95213 | 16.77693 | 5834 ft | 267 kts | 166° |
| 2026-04-24 15:25 | 47.91021 | 16.79428 | 5638 ft | 266 kts | 166° |
| 2026-04-24 15:26 | 47.85667 | 16.81635 | 5317 ft | 265 kts | 166° |
| 2026-04-24 15:27 | 47.80330 | 16.83830 | 5019 ft | 267 kts | 167° |
| 2026-04-24 15:27 | 47.75267 | 16.85914 | 4755 ft | 244 kts | 168° |
| 2026-04-24 15:28 | 47.70068 | 16.82985 | 4475 ft | 203 kts | 255° |
| 2026-04-24 15:29 | 47.69537 | 16.78937 | 4280 ft | 198 kts | 277° |
| 2026-04-24 15:30 | 47.71625 | 16.74613 | 4032 ft | 174 kts | 334° |
| 2026-04-24 15:31 | 47.76295 | 16.72646 | 3725 ft | 175 kts | 340° |
| 2026-04-24 15:32 | 47.80981 | 16.70729 | 3525 ft | 171 kts | 340° |
| 2026-04-24 15:33 | 47.85382 | 16.68908 | 3355 ft | 162 kts | 341° |
| 2026-04-24 15:33 | 47.88681 | 16.67570 | 3266 ft | 165 kts | 341° |
| 2026-04-24 15:34 | 47.90899 | 16.66670 | 3218 ft | 166 kts | 341° |
| 2026-04-24 15:35 | 47.94169 | 16.65341 | 3138 ft | 156 kts | 341° |
| 2026-04-24 15:35 | 47.96233 | 16.64472 | 3093 ft | 148 kts | 340° |
| 2026-04-24 15:35 | 47.97181 | 16.64074 | 3049 ft | 134 kts | 340° |
| 2026-04-24 15:36 | 47.98036 | 16.63720 | 2994 ft | 121 kts | 340° |
| 2026-04-24 15:36 | 47.99663 | 16.62985 | 2581 ft | 126 kts | 339° |
| 2026-04-24 15:36 | 48.00496 | 16.62630 | 2406 ft | 121 kts | 342° |
| 2026-04-24 15:37 | 48.01294 | 16.62309 | 2222 ft | 117 kts | 341° |
| 2026-04-24 15:37 | 48.02083 | 16.61991 | 2058 ft | 118 kts | 340° |
| 2026-04-24 15:37 | 48.02610 | 16.61773 | 1934 ft | 116 kts | 340° |
| 2026-04-24 15:37 | 48.03633 | 16.61302 | 1715 ft | 116 kts | 338° |
| 2026-04-24 15:38 | 48.04401 | 16.60976 | 1521 ft | 114 kts | 340° |
| 2026-04-24 15:38 | 48.05182 | 16.60712 | 1354 ft | 116 kts | 342° |
| 2026-04-24 15:38 | 48.05967 | 16.60422 | 1224 ft | 117 kts | 339° |
| 2026-04-24 15:38 | 48.06753 | 16.60068 | 1065 ft | 120 kts | 338° |
| 2026-04-24 15:39 | 48.07564 | 16.59685 | 928 ft | 124 kts | 338° |
| 2026-04-24 15:39 | 48.08393 | 16.59340 | 744 ft | 122 kts | 338° |
| 2026-04-24 15:39 | 48.09197 | 16.58991 | 639 ft | 118 kts | 338° |
| 2026-04-24 15:39 | 48.09865 | 16.58707 | 634 ft | 68 kts | 345° |
| 2026-04-24 15:40 | 48.10220 | 16.58557 | 627 ft | 25 kts | 344° |
| 2026-04-24 15:40 | 48.10266 | 16.58537 | 616 ft | 15 kts | 344° |